Station Historical Data
Daily Summary for April 28, 2012 Units:  Both    English   Metric
« Previous Day
Next Day »
Daily Weekly Monthly Yearly Custom
  High: Low: Average:
Temperature: 81.6 °F /  27.6 °C 60.9 °F /  16.1 °C 70.7 °F /  21.5 °C
Dew Point: 65.3 °F /  18.5 °C 58.6 °F /  14.8 °C 61.6 °F /  16.4 °C
Humidity: 94% 46% 75%
Wind Speed: 13.0mph /  20.9km/h - 4.8mph /  7.7km/h
Wind Gust: 15.0mph /  24.1km/h - -
Wind- - South
Pressure: 30.02 in /  1016.5 hPa 29.92 in /  1013.1 hPa -
Precipitation: 0.00 in /  0 mm    
Historical Graphs
 
 
Tabular Data for April 28, 2012
Time Temperature Dew Point Pressure Wind Wind Speed Wind Gust Humidity Rainfall Rate (Hourly) Conditions
00:00 65.5 °F /  18.6 °C 63.1 °F /  17.3 °C 29.95in /  1014.1hPa ESE 4.0mph /  6.4km/h 4.0mph /  6.4km/h 92% 0.00in /  0mm
00:05 65.3 °F /  18.5 °C 63.2 °F /  17.3 °C 29.94in /  1013.8hPa ESE 5.0mph /  8km/h 5.0mph /  8km/h 93% 0.00in /  0mm
00:10 65.3 °F /  18.5 °C 63.2 °F /  17.3 °C 29.94in /  1013.8hPa ESE 4.0mph /  6.4km/h 6.0mph /  9.7km/h 93% 0.00in /  0mm
00:15 65.1 °F /  18.4 °C 63.0 °F /  17.2 °C 29.95in /  1014.1hPa ESE 3.0mph /  4.8km/h 5.0mph /  8km/h 93% 0.00in /  0mm
00:20 65.0 °F /  18.3 °C 62.9 °F /  17.2 °C 29.94in /  1013.8hPa ESE 4.0mph /  6.4km/h 6.0mph /  9.7km/h 93% 0.00in /  0mm
00:25 65.1 °F /  18.4 °C 63.0 °F /  17.2 °C 29.94in /  1013.8hPa SE 5.0mph /  8km/h 5.0mph /  8km/h 93% 0.00in /  0mm
00:30 65.3 °F /  18.5 °C 63.2 °F /  17.3 °C 29.94in /  1013.8hPa SE 5.0mph /  8km/h 5.0mph /  8km/h 93% 0.00in /  0mm
00:35 65.6 °F /  18.7 °C 63.5 °F /  17.5 °C 29.94in /  1013.8hPa SE 4.0mph /  6.4km/h 7.0mph /  11.3km/h 93% 0.00in /  0mm
00:40 65.7 °F /  18.7 °C 63.6 °F /  17.6 °C 29.94in /  1013.8hPa SE 6.0mph /  9.7km/h 6.0mph /  9.7km/h 93% 0.00in /  0mm
00:45 65.9 °F /  18.8 °C 63.8 °F /  17.7 °C 29.94in /  1013.8hPa SE 8.0mph /  12.9km/h 8.0mph /  12.9km/h 93% 0.00in /  0mm
00:46 65.9 °F /  18.8 °C 63.8 °F /  17.7 °C 29.94in /  1013.8hPa SE 5.0mph /  8km/h 8.0mph /  12.9km/h 93% 0.00in /  0mm
00:51 66.0 °F /  18.9 °C 63.6 °F /  17.6 °C 29.94in /  1013.8hPa SE 3.0mph /  4.8km/h 6.0mph /  9.7km/h 92% 0.00in /  0mm
00:56 66.0 °F /  18.9 °C 63.6 °F /  17.6 °C 29.94in /  1013.8hPa SE 6.0mph /  9.7km/h 6.0mph /  9.7km/h 92% 0.00in /  0mm
01:01 66.0 °F /  18.9 °C 63.6 °F /  17.6 °C 29.94in /  1013.8hPa SE 5.0mph /  8km/h 7.0mph /  11.3km/h 92% 0.00in /  0mm
01:06 66.1 °F /  18.9 °C 63.4 °F /  17.4 °C 29.94in /  1013.8hPa ESE 6.0mph /  9.7km/h 8.0mph /  12.9km/h 91% 0.00in /  0mm
01:11 66.1 °F /  18.9 °C 63.4 °F /  17.4 °C 29.94in /  1013.8hPa ESE 4.0mph /  6.4km/h 7.0mph /  11.3km/h 91% 0.00in /  0mm
01:16 66.1 °F /  18.9 °C 63.4 °F /  17.4 °C 29.94in /  1013.8hPa SE 6.0mph /  9.7km/h 7.0mph /  11.3km/h 91% 0.00in /  0mm
01:21 66.1 °F /  18.9 °C 63.4 °F /  17.4 °C 29.94in /  1013.8hPa ESE 3.0mph /  4.8km/h 6.0mph /  9.7km/h 91% 0.00in /  0mm
01:26 66.0 °F /  18.9 °C 63.0 °F /  17.2 °C 29.94in /  1013.8hPa SE 5.0mph /  8km/h 9.0mph /  14.5km/h 90% 0.00in /  0mm
01:31 65.8 °F /  18.8 °C 63.1 °F /  17.3 °C 29.93in /  1013.4hPa SE 3.0mph /  4.8km/h 7.0mph /  11.3km/h 91% 0.00in /  0mm
01:36 65.7 °F /  18.7 °C 63.0 °F /  17.2 °C 29.94in /  1013.8hPa SE 6.0mph /  9.7km/h 6.0mph /  9.7km/h 91% 0.00in /  0mm
01:41 65.7 °F /  18.7 °C 62.7 °F /  17.1 °C 29.94in /  1013.8hPa ESE 2.0mph /  3.2km/h 5.0mph /  8km/h 90% 0.00in /  0mm
01:46 65.6 °F /  18.7 °C 62.9 °F /  17.2 °C 29.94in /  1013.8hPa SE 5.0mph /  8km/h 5.0mph /  8km/h 91% 0.00in /  0mm
01:51 65.5 °F /  18.6 °C 62.5 °F /  16.9 °C 29.94in /  1013.8hPa SE 5.0mph /  8km/h 5.0mph /  8km/h 90% 0.00in /  0mm
01:56 65.5 °F /  18.6 °C 62.8 °F /  17.1 °C 29.94in /  1013.8hPa SE 3.0mph /  4.8km/h 4.0mph /  6.4km/h 91% 0.00in /  0mm
02:01 65.4 °F /  18.6 °C 62.4 °F /  16.9 °C 29.94in /  1013.8hPa ESE 5.0mph /  8km/h 5.0mph /  8km/h 90% 0.00in /  0mm
02:06 65.3 °F /  18.5 °C 62.3 °F /  16.8 °C 29.93in /  1013.4hPa ESE 5.0mph /  8km/h 6.0mph /  9.7km/h 90% 0.00in /  0mm
02:11 65.2 °F /  18.4 °C 62.2 °F /  16.8 °C 29.94in /  1013.8hPa SE 6.0mph /  9.7km/h 6.0mph /  9.7km/h 90% 0.00in /  0mm
02:16 65.2 °F /  18.4 °C 62.2 °F /  16.8 °C 29.94in /  1013.8hPa SE 6.0mph /  9.7km/h 8.0mph /  12.9km/h 90% 0.00in /  0mm
02:21 65.2 °F /  18.4 °C 62.2 °F /  16.8 °C 29.94in /  1013.8hPa SE 4.0mph /  6.4km/h 7.0mph /  11.3km/h 90% 0.00in /  0mm
02:26 65.2 °F /  18.4 °C 62.2 °F /  16.8 °C 29.94in /  1013.8hPa SE 8.0mph /  12.9km/h 8.0mph /  12.9km/h 90% 0.00in /  0mm
02:31 65.2 °F /  18.4 °C 62.2 °F /  16.8 °C 29.93in /  1013.4hPa SE 5.0mph /  8km/h 7.0mph /  11.3km/h 90% 0.00in /  0mm
02:36 65.0 °F /  18.3 °C 62.0 °F /  16.7 °C 29.93in /  1013.4hPa SE 5.0mph /  8km/h 6.0mph /  9.7km/h 90% 0.00in /  0mm
02:41 65.0 °F /  18.3 °C 62.0 °F /  16.7 °C 29.93in /  1013.4hPa SE 4.0mph /  6.4km/h 7.0mph /  11.3km/h 90% 0.00in /  0mm
02:46 64.9 °F /  18.3 °C 61.9 °F /  16.6 °C 29.93in /  1013.4hPa SE 7.0mph /  11.3km/h 9.0mph /  14.5km/h 90% 0.00in /  0mm
02:51 64.9 °F /  18.3 °C 61.9 °F /  16.6 °C 29.93in /  1013.4hPa SE 6.0mph /  9.7km/h 8.0mph /  12.9km/h 90% 0.00in /  0mm
02:56 64.8 °F /  18.2 °C 61.8 °F /  16.6 °C 29.93in /  1013.4hPa ESE 5.0mph /  8km/h 8.0mph /  12.9km/h 90% 0.00in /  0mm
03:01 64.7 °F /  18.2 °C 61.7 °F /  16.5 °C 29.93in /  1013.4hPa SE 5.0mph /  8km/h 7.0mph /  11.3km/h 90% 0.00in /  0mm
03:06 64.7 °F /  18.2 °C 62.0 °F /  16.7 °C 29.93in /  1013.4hPa SE 6.0mph /  9.7km/h 8.0mph /  12.9km/h 91% 0.00in /  0mm
03:12 64.7 °F /  18.2 °C 62.0 °F /  16.7 °C 29.93in /  1013.4hPa SE 7.0mph /  11.3km/h 7.0mph /  11.3km/h 91% 0.00in /  0mm
03:17 64.7 °F /  18.2 °C 62.0 °F /  16.7 °C 29.93in /  1013.4hPa SE 6.0mph /  9.7km/h 7.0mph /  11.3km/h 91% 0.00in /  0mm
03:22 64.5 °F /  18.1 °C 61.8 °F /  16.6 °C 29.93in /  1013.4hPa SE 5.0mph /  8km/h 7.0mph /  11.3km/h 91% 0.00in /  0mm
03:27 64.4 °F /  18 °C 61.7 °F /  16.5 °C 29.93in /  1013.4hPa SE 5.0mph /  8km/h 7.0mph /  11.3km/h 91% 0.00in /  0mm
03:32 64.3 °F /  17.9 °C 61.6 °F /  16.4 °C 29.93in /  1013.4hPa SE 5.0mph /  8km/h 6.0mph /  9.7km/h 91% 0.00in /  0mm
03:37 64.1 °F /  17.8 °C 61.4 °F /  16.3 °C 29.93in /  1013.4hPa SSE 4.0mph /  6.4km/h 8.0mph /  12.9km/h 91% 0.00in /  0mm
03:42 63.9 °F /  17.7 °C 61.2 °F /  16.2 °C 29.93in /  1013.4hPa SE 5.0mph /  8km/h 5.0mph /  8km/h 91% 0.00in /  0mm
03:47 63.7 °F /  17.6 °C 61.3 °F /  16.3 °C 29.93in /  1013.4hPa SE 3.0mph /  4.8km/h 5.0mph /  8km/h 92% 0.00in /  0mm
03:52 63.5 °F /  17.5 °C 61.1 °F /  16.2 °C 29.94in /  1013.8hPa SE 3.0mph /  4.8km/h 6.0mph /  9.7km/h 92% 0.00in /  0mm
03:57 63.3 °F /  17.4 °C 60.9 °F /  16.1 °C 29.94in /  1013.8hPa SSE 4.0mph /  6.4km/h 5.0mph /  8km/h 92% 0.00in /  0mm
04:02 63.2 °F /  17.3 °C 60.8 °F /  16 °C 29.94in /  1013.8hPa SSE 6.0mph /  9.7km/h 8.0mph /  12.9km/h 92% 0.00in /  0mm
04:07 63.2 °F /  17.3 °C 60.8 °F /  16 °C 29.94in /  1013.8hPa SSE 4.0mph /  6.4km/h 6.0mph /  9.7km/h 92% 0.00in /  0mm
04:12 63.2 °F /  17.3 °C 60.8 °F /  16 °C 29.94in /  1013.8hPa SSE 5.0mph /  8km/h 7.0mph /  11.3km/h 92% 0.00in /  0mm
04:17 63.3 °F /  17.4 °C 60.9 °F /  16.1 °C 29.94in /  1013.8hPa SSW 3.0mph /  4.8km/h 5.0mph /  8km/h 92% 0.00in /  0mm
04:22 63.4 °F /  17.4 °C 61.0 °F /  16.1 °C 29.95in /  1014.1hPa South 2.0mph /  3.2km/h 5.0mph /  8km/h 92% 0.00in /  0mm
04:27 63.5 °F /  17.5 °C 61.1 °F /  16.2 °C 29.95in /  1014.1hPa South 4.0mph /  6.4km/h 4.0mph /  6.4km/h 92% 0.00in /  0mm
04:32 63.6 °F /  17.6 °C 61.2 °F /  16.2 °C 29.95in /  1014.1hPa SE 2.0mph /  3.2km/h 3.0mph /  4.8km/h 92% 0.00in /  0mm
04:37 63.3 °F /  17.4 °C 60.9 °F /  16.1 °C 29.95in /  1014.1hPa South 2.0mph /  3.2km/h 3.0mph /  4.8km/h 92% 0.00in /  0mm
04:42 63.3 °F /  17.4 °C 60.9 °F /  16.1 °C 29.95in /  1014.1hPa SE 2.0mph /  3.2km/h 3.0mph /  4.8km/h 92% 0.00in /  0mm
04:47 63.1 °F /  17.3 °C 60.7 °F /  15.9 °C 29.95in /  1014.1hPa South 2.0mph /  3.2km/h 4.0mph /  6.4km/h 92% 0.00in /  0mm
04:52 63.1 °F /  17.3 °C 60.7 °F /  15.9 °C 29.95in /  1014.1hPa SSW 4.0mph /  6.4km/h 4.0mph /  6.4km/h 92% 0.00in /  0mm
04:57 63.1 °F /  17.3 °C 60.7 °F /  15.9 °C 29.95in /  1014.1hPa South 4.0mph /  6.4km/h 5.0mph /  8km/h 92% 0.00in /  0mm
05:02 63.2 °F /  17.3 °C 60.8 °F /  16 °C 29.95in /  1014.1hPa SSW 2.0mph /  3.2km/h 5.0mph /  8km/h 92% 0.00in /  0mm
05:07 63.2 °F /  17.3 °C 60.8 °F /  16 °C 29.95in /  1014.1hPa South 2.0mph /  3.2km/h 4.0mph /  6.4km/h 92% 0.00in /  0mm
05:12 63.0 °F /  17.2 °C 60.6 °F /  15.9 °C 29.96in /  1014.4hPa South 3.0mph /  4.8km/h 3.0mph /  4.8km/h 92% 0.00in /  0mm
05:17 62.9 °F /  17.2 °C 60.5 °F /  15.8 °C 29.96in /  1014.4hPa South 3.0mph /  4.8km/h 3.0mph /  4.8km/h 92% 0.00in /  0mm
05:22 62.7 °F /  17.1 °C 60.3 °F /  15.7 °C 29.96in /  1014.4hPa South 2.0mph /  3.2km/h 4.0mph /  6.4km/h 92% 0.00in /  0mm
05:27 62.6 °F /  17 °C 60.2 °F /  15.7 °C 29.96in /  1014.4hPa SSE 3.0mph /  4.8km/h 6.0mph /  9.7km/h 92% 0.00in /  0mm
05:32 62.6 °F /  17 °C 60.2 °F /  15.7 °C 29.96in /  1014.4hPa SSE 3.0mph /  4.8km/h 4.0mph /  6.4km/h 92% 0.00in /  0mm
05:38 62.4 °F /  16.9 °C 60.0 °F /  15.6 °C 29.96in /  1014.4hPa SSE 2.0mph /  3.2km/h 4.0mph /  6.4km/h 92% 0.00in /  0mm
05:43 62.3 °F /  16.8 °C 60.2 °F /  15.7 °C 29.96in /  1014.4hPa SE 2.0mph /  3.2km/h 4.0mph /  6.4km/h 93% 0.00in /  0mm
05:48 62.2 °F /  16.8 °C 60.2 °F /  15.7 °C 29.96in /  1014.4hPa SSE 3.0mph /  4.8km/h 4.0mph /  6.4km/h 93% 0.00in /  0mm
05:53 62.2 °F /  16.8 °C 60.2 °F /  15.7 °C 29.96in /  1014.4hPa SE 1.0mph /  1.6km/h 4.0mph /  6.4km/h 93% 0.00in /  0mm
05:58 62.2 °F /  16.8 °C 60.2 °F /  15.7 °C 29.96in /  1014.4hPa SSE 2.0mph /  3.2km/h 4.0mph /  6.4km/h 93% 0.00in /  0mm
06:03 62.0 °F /  16.7 °C 60.0 °F /  15.6 °C 29.96in /  1014.4hPa SSE 3.0mph /  4.8km/h 3.0mph /  4.8km/h 93% 0.00in /  0mm
06:08 61.8 °F /  16.6 °C 59.8 °F /  15.4 °C 29.96in /  1014.4hPa SSE 3.0mph /  4.8km/h 4.0mph /  6.4km/h 93% 0.00in /  0mm
06:13 61.7 °F /  16.5 °C 59.7 °F /  15.4 °C 29.96in /  1014.4hPa SSE 3.0mph /  4.8km/h 5.0mph /  8km/h 93% 0.00in /  0mm
06:18 61.7 °F /  16.5 °C 59.7 °F /  15.4 °C 29.96in /  1014.4hPa SE 3.0mph /  4.8km/h 4.0mph /  6.4km/h 93% 0.00in /  0mm
06:23 61.5 °F /  16.4 °C 59.5 °F /  15.3 °C 29.97in /  1014.8hPa SSE 3.0mph /  4.8km/h 4.0mph /  6.4km/h 93% 0.00in /  0mm
06:28 61.4 °F /  16.3 °C 59.4 °F /  15.2 °C 29.96in /  1014.4hPa SSE 3.0mph /  4.8km/h 5.0mph /  8km/h 93% 0.00in /  0mm
06:33 61.5 °F /  16.4 °C 59.5 °F /  15.3 °C 29.97in /  1014.8hPa SSE 2.0mph /  3.2km/h 3.0mph /  4.8km/h 93% 0.00in /  0mm
06:38 61.4 °F /  16.3 °C 59.4 °F /  15.2 °C 29.97in /  1014.8hPa SE 3.0mph /  4.8km/h 4.0mph /  6.4km/h 93% 0.00in /  0mm
06:43 61.2 °F /  16.2 °C 59.2 °F /  15.1 °C 29.97in /  1014.8hPa SSE 3.0mph /  4.8km/h 4.0mph /  6.4km/h 93% 0.00in /  0mm
06:48 61.1 °F /  16.2 °C 59.1 °F /  15.1 °C 29.97in /  1014.8hPa South 4.0mph /  6.4km/h 4.0mph /  6.4km/h 93% 0.00in /  0mm
06:53 61.1 °F /  16.2 °C 59.1 °F /  15.1 °C 29.97in /  1014.8hPa SSE 4.0mph /  6.4km/h 4.0mph /  6.4km/h 93% 0.00in /  0mm
06:58 61.1 °F /  16.2 °C 59.4 °F /  15.2 °C 29.97in /  1014.8hPa SSE 4.0mph /  6.4km/h 5.0mph /  8km/h 94% 0.00in /  0mm
07:03 61.1 °F /  16.2 °C 59.4 °F /  15.2 °C 29.97in /  1014.8hPa South 3.0mph /  4.8km/h 4.0mph /  6.4km/h 94% 0.00in /  0mm
07:08 61.0 °F /  16.1 °C 59.3 °F /  15.2 °C 29.97in /  1014.8hPa SSE 3.0mph /  4.8km/h 5.0mph /  8km/h 94% 0.00in /  0mm
07:13 60.9 °F /  16.1 °C 59.2 °F /  15.1 °C 29.97in /  1014.8hPa SE 3.0mph /  4.8km/h 5.0mph /  8km/h 94% 0.00in /  0mm
07:18 61.0 °F /  16.1 °C 59.3 °F /  15.2 °C 29.97in /  1014.8hPa SSE 3.0mph /  4.8km/h 5.0mph /  8km/h 94% 0.00in /  0mm
07:23 61.0 °F /  16.1 °C 59.3 °F /  15.2 °C 29.98in /  1015.1hPa SSE 3.0mph /  4.8km/h 4.0mph /  6.4km/h 94% 0.00in /  0mm
07:28 61.1 °F /  16.2 °C 59.4 °F /  15.2 °C 29.98in /  1015.1hPa SSE 4.0mph /  6.4km/h 5.0mph /  8km/h 94% 0.00in /  0mm
07:33 61.3 °F /  16.3 °C 59.6 °F /  15.3 °C 29.98in /  1015.1hPa SSE 4.0mph /  6.4km/h 5.0mph /  8km/h 94% 0.00in /  0mm
07:38 61.5 °F /  16.4 °C 59.8 °F /  15.4 °C 29.98in /  1015.1hPa SE 2.0mph /  3.2km/h 6.0mph /  9.7km/h 94% 0.00in /  0mm
07:43 61.8 °F /  16.6 °C 60.1 °F /  15.6 °C 29.98in /  1015.1hPa South 6.0mph /  9.7km/h 6.0mph /  9.7km/h 94% 0.00in /  0mm
07:48 62.2 °F /  16.8 °C 60.5 °F /  15.8 °C 29.98in /  1015.1hPa SSE 4.0mph /  6.4km/h 6.0mph /  9.7km/h 94% 0.00in /  0mm
07:54 62.6 °F /  17 °C 60.8 °F /  16 °C 29.98in /  1015.1hPa SSE 3.0mph /  4.8km/h 6.0mph /  9.7km/h 94% 0.00in /  0mm
07:59 63.0 °F /  17.2 °C 61.0 °F /  16.1 °C 29.99in /  1015.5hPa SW 2.0mph /  3.2km/h 6.0mph /  9.7km/h 93% 0.00in /  0mm
08:04 63.3 °F /  17.4 °C 61.2 °F /  16.2 °C 29.99in /  1015.5hPa SSE 6.0mph /  9.7km/h 7.0mph /  11.3km/h 93% 0.00in /  0mm
08:09 63.6 °F /  17.6 °C 61.5 °F /  16.4 °C 29.99in /  1015.5hPa South 5.0mph /  8km/h 8.0mph /  12.9km/h 93% 0.00in /  0mm
08:14 63.9 °F /  17.7 °C 61.5 °F /  16.4 °C 29.99in /  1015.5hPa SW 4.0mph /  6.4km/h 7.0mph /  11.3km/h 92% 0.00in /  0mm
08:19 64.1 °F /  17.8 °C 61.7 °F /  16.5 °C 29.99in /  1015.5hPa South 5.0mph /  8km/h 10.0mph /  16.1km/h 92% 0.00in /  0mm
08:24 64.4 °F /  18 °C 62.0 °F /  16.7 °C 29.99in /  1015.5hPa South 4.0mph /  6.4km/h 7.0mph /  11.3km/h 92% 0.00in /  0mm
08:29 64.7 °F /  18.2 °C 62.3 °F /  16.8 °C 29.99in /  1015.5hPa SSE 8.0mph /  12.9km/h 8.0mph /  12.9km/h 92% 0.00in /  0mm
08:34 65.0 °F /  18.3 °C 62.3 °F /  16.8 °C 29.99in /  1015.5hPa South 3.0mph /  4.8km/h 9.0mph /  14.5km/h 91% 0.00in /  0mm
08:39 65.2 °F /  18.4 °C 62.5 °F /  16.9 °C 30.00in /  1015.8hPa South 6.0mph /  9.7km/h 7.0mph /  11.3km/h 91% 0.00in /  0mm
08:44 65.5 °F /  18.6 °C 62.8 °F /  17.1 °C 30.00in /  1015.8hPa South 3.0mph /  4.8km/h 6.0mph /  9.7km/h 91% 0.00in /  0mm
08:49 65.7 °F /  18.7 °C 63.0 °F /  17.2 °C 29.99in /  1015.5hPa SSE 6.0mph /  9.7km/h 7.0mph /  11.3km/h 91% 0.00in /  0mm
08:54 65.8 °F /  18.8 °C 62.8 °F /  17.1 °C 30.00in /  1015.8hPa SW 4.0mph /  6.4km/h 7.0mph /  11.3km/h 90% 0.00in /  0mm
08:59 66.0 °F /  18.9 °C 63.0 °F /  17.2 °C 30.00in /  1015.8hPa SW 6.0mph /  9.7km/h 10.0mph /  16.1km/h 90% 0.00in /  0mm
09:04 66.0 °F /  18.9 °C 63.0 °F /  17.2 °C 30.00in /  1015.8hPa SSE 5.0mph /  8km/h 11.0mph /  17.7km/h 90% 0.00in /  0mm
09:09 66.3 °F /  19.1 °C 63.3 °F /  17.4 °C 30.00in /  1015.8hPa SSW 6.0mph /  9.7km/h 9.0mph /  14.5km/h 90% 0.00in /  0mm
09:14 66.2 °F /  19 °C 63.2 °F /  17.3 °C 30.00in /  1015.8hPa South 6.0mph /  9.7km/h 11.0mph /  17.7km/h 90% 0.00in /  0mm
09:19 66.2 °F /  19 °C 63.2 °F /  17.3 °C 30.00in /  1015.8hPa SSE 9.0mph /  14.5km/h 9.0mph /  14.5km/h 90% 0.00in /  0mm
09:24 66.2 °F /  19 °C 63.2 °F /  17.3 °C 30.00in /  1015.8hPa WSW 7.0mph /  11.3km/h 11.0mph /  17.7km/h 90% 0.00in /  0mm
09:29 66.2 °F /  19 °C 63.2 °F /  17.3 °C 30.00in /  1015.8hPa SW 7.0mph /  11.3km/h 9.0mph /  14.5km/h 90% 0.00in /  0mm
09:34 66.4 °F /  19.1 °C 63.4 °F /  17.4 °C 30.00in /  1015.8hPa SSW 4.0mph /  6.4km/h 8.0mph /  12.9km/h 90% 0.00in /  0mm
09:39 66.4 °F /  19.1 °C 63.4 °F /  17.4 °C 30.00in /  1015.8hPa WSW 9.0mph /  14.5km/h 10.0mph /  16.1km/h 90% 0.00in /  0mm
09:44 66.7 °F /  19.3 °C 63.4 °F /  17.4 °C 30.00in /  1015.8hPa WSW 7.0mph /  11.3km/h 10.0mph /  16.1km/h 89% 0.00in /  0mm
09:49 67.0 °F /  19.4 °C 64.0 °F /  17.8 °C 30.00in /  1015.8hPa SW 9.0mph /  14.5km/h 9.0mph /  14.5km/h 90% 0.00in /  0mm
09:54 67.1 °F /  19.5 °C 63.8 °F /  17.7 °C 30.00in /  1015.8hPa SSW 4.0mph /  6.4km/h 8.0mph /  12.9km/h 89% 0.00in /  0mm
09:59 67.0 °F /  19.4 °C 63.7 °F /  17.6 °C 30.01in /  1016.1hPa SW 7.0mph /  11.3km/h 11.0mph /  17.7km/h 89% 0.00in /  0mm
10:04 66.9 °F /  19.4 °C 63.6 °F /  17.6 °C 30.01in /  1016.1hPa SW 8.0mph /  12.9km/h 8.0mph /  12.9km/h 89% 0.00in /  0mm
10:09 66.8 °F /  19.3 °C 63.5 °F /  17.5 °C 30.01in /  1016.1hPa SW 3.0mph /  4.8km/h 10.0mph /  16.1km/h 89% 0.00in /  0mm
10:14 67.0 °F /  19.4 °C 63.7 °F /  17.6 °C 30.01in /  1016.1hPa WSW 4.0mph /  6.4km/h 7.0mph /  11.3km/h 89% 0.00in /  0mm
10:19 67.2 °F /  19.6 °C 63.8 °F /  17.7 °C 30.01in /  1016.1hPa SSW 5.0mph /  8km/h 7.0mph /  11.3km/h 89% 0.00in /  0mm
10:24 67.4 °F /  19.7 °C 64.1 °F /  17.8 °C 30.01in /  1016.1hPa South 3.0mph /  4.8km/h 6.0mph /  9.7km/h 89% 0.00in /  0mm
10:27 67.6 °F /  19.8 °C 64.2 °F /  17.9 °C 30.00in /  1015.8hPa South 3.0mph /  4.8km/h 9.0mph /  14.5km/h 89% 0.00in /  0mm
10:32 67.8 °F /  19.9 °C 64.1 °F /  17.8 °C 30.00in /  1015.8hPa South 8.0mph /  12.9km/h 8.0mph /  12.9km/h 88% 0.00in /  0mm
10:38 67.9 °F /  19.9 °C 64.2 °F /  17.9 °C 30.00in /  1015.8hPa SW 5.0mph /  8km/h 7.0mph /  11.3km/h 88% 0.00in /  0mm
10:43 67.9 °F /  19.9 °C 64.2 °F /  17.9 °C 30.00in /  1015.8hPa SW 3.0mph /  4.8km/h 6.0mph /  9.7km/h 88% 0.00in /  0mm
10:48 68.2 °F /  20.1 °C 64.5 °F /  18.1 °C 30.01in /  1016.1hPa South 4.0mph /  6.4km/h 7.0mph /  11.3km/h 88% 0.00in /  0mm
10:53 68.2 °F /  20.1 °C 64.2 °F /  17.9 °C 30.01in /  1016.1hPa South 7.0mph /  11.3km/h 9.0mph /  14.5km/h 87% 0.00in /  0mm
10:58 68.0 °F /  20 °C 64.0 °F /  17.8 °C 30.01in /  1016.1hPa SW 3.0mph /  4.8km/h 9.0mph /  14.5km/h 87% 0.00in /  0mm
11:03 68.2 °F /  20.1 °C 64.2 °F /  17.9 °C 30.01in /  1016.1hPa WSW 5.0mph /  8km/h 7.0mph /  11.3km/h 87% 0.00in /  0mm
11:08 68.8 °F /  20.4 °C 64.8 °F /  18.2 °C 30.01in /  1016.1hPa SSE 2.0mph /  3.2km/h 10.0mph /  16.1km/h 87% 0.00in /  0mm
11:13 69.1 °F /  20.6 °C 64.7 °F /  18.2 °C 30.01in /  1016.1hPa SSW 7.0mph /  11.3km/h 9.0mph /  14.5km/h 86% 0.00in /  0mm
11:18 69.3 °F /  20.7 °C 64.6 °F /  18.1 °C 30.01in /  1016.1hPa South 5.0mph /  8km/h 8.0mph /  12.9km/h 85% 0.00in /  0mm
11:23 69.2 °F /  20.7 °C 64.2 °F /  17.9 °C 30.01in /  1016.1hPa SW 8.0mph /  12.9km/h 10.0mph /  16.1km/h 84% 0.00in /  0mm
11:28 69.2 °F /  20.7 °C 63.8 °F /  17.7 °C 30.01in /  1016.1hPa SSW 7.0mph /  11.3km/h 13.0mph /  20.9km/h 83% 0.00in /  0mm
11:33 69.8 °F /  21 °C 64.4 °F /  18 °C 30.01in /  1016.1hPa SSW 5.0mph /  8km/h 10.0mph /  16.1km/h 83% 0.00in /  0mm
11:38 70.1 °F /  21.2 °C 64.0 °F /  17.8 °C 30.01in /  1016.1hPa WSW 3.0mph /  4.8km/h 11.0mph /  17.7km/h 81% 0.00in /  0mm
11:43 70.6 °F /  21.4 °C 64.1 °F /  17.8 °C 30.01in /  1016.1hPa SW 4.0mph /  6.4km/h 12.0mph /  19.3km/h 80% 0.00in /  0mm
11:48 70.9 °F /  21.6 °C 63.3 °F /  17.4 °C 30.01in /  1016.1hPa SSE 11.0mph /  17.7km/h 13.0mph /  20.9km/h 77% 0.00in /  0mm
11:53 70.9 °F /  21.6 °C 63.7 °F /  17.6 °C 30.02in /  1016.5hPa SSE 5.0mph /  8km/h 8.0mph /  12.9km/h 78% 0.00in /  0mm
11:58 71.5 °F /  21.9 °C 64.7 °F /  18.2 °C 30.01in /  1016.1hPa SE 8.0mph /  12.9km/h 8.0mph /  12.9km/h 79% 0.00in /  0mm
12:03 72.0 °F /  22.2 °C 64.4 °F /  18 °C 30.02in /  1016.5hPa SW 6.0mph /  9.7km/h 11.0mph /  17.7km/h 77% 0.00in /  0mm
12:08 72.8 °F /  22.7 °C 64.4 °F /  18 °C 30.01in /  1016.1hPa SE 8.0mph /  12.9km/h 13.0mph /  20.9km/h 75% 0.00in /  0mm
12:13 72.6 °F /  22.6 °C 64.2 °F /  17.9 °C 30.01in /  1016.1hPa WSW 11.0mph /  17.7km/h 11.0mph /  17.7km/h 75% 0.00in /  0mm
12:18 72.7 °F /  22.6 °C 64.7 °F /  18.2 °C 30.01in /  1016.1hPa South 6.0mph /  9.7km/h 11.0mph /  17.7km/h 76% 0.00in /  0mm
12:23 72.8 °F /  22.7 °C 65.2 °F /  18.4 °C 30.01in /  1016.1hPa SSE 4.0mph /  6.4km/h 10.0mph /  16.1km/h 77% 0.00in /  0mm
12:28 73.3 °F /  22.9 °C 63.7 °F /  17.6 °C 30.01in /  1016.1hPa South 6.0mph /  9.7km/h 10.0mph /  16.1km/h 72% 0.00in /  0mm
12:33 72.7 °F /  22.6 °C 63.5 °F /  17.5 °C 30.01in /  1016.1hPa SSW 3.0mph /  4.8km/h 8.0mph /  12.9km/h 73% 0.00in /  0mm
12:38 73.1 °F /  22.8 °C 63.9 °F /  17.7 °C 30.00in /  1015.8hPa WSW 4.0mph /  6.4km/h 10.0mph /  16.1km/h 73% 0.00in /  0mm
12:43 73.3 °F /  22.9 °C 65.3 °F /  18.5 °C 30.00in /  1015.8hPa SSE 8.0mph /  12.9km/h 10.0mph /  16.1km/h 76% 0.00in /  0mm
12:48 73.6 °F /  23.1 °C 62.8 °F /  17.1 °C 30.00in /  1015.8hPa SSW 7.0mph /  11.3km/h 13.0mph /  20.9km/h 69% 0.00in /  0mm
12:53 73.9 °F /  23.3 °C 63.5 °F /  17.5 °C 30.00in /  1015.8hPa SE 9.0mph /  14.5km/h 13.0mph /  20.9km/h 70% 0.00in /  0mm
12:58 74.1 °F /  23.4 °C 62.9 °F /  17.2 °C 30.00in /  1015.8hPa SSW 11.0mph /  17.7km/h 12.0mph /  19.3km/h 68% 0.00in /  0mm
13:03 74.3 °F /  23.5 °C 63.9 °F /  17.7 °C 30.00in /  1015.8hPa SSE 9.0mph /  14.5km/h 10.0mph /  16.1km/h 70% 0.00in /  0mm
13:09 75.2 °F /  24 °C 63.5 °F /  17.5 °C 30.00in /  1015.8hPa SSW 5.0mph /  8km/h 9.0mph /  14.5km/h 67% 0.00in /  0mm
13:14 75.1 °F /  23.9 °C 63.0 °F /  17.2 °C 30.00in /  1015.8hPa SE 11.0mph /  17.7km/h 13.0mph /  20.9km/h 66% 0.00in /  0mm
13:19 75.1 °F /  23.9 °C 62.5 °F /  16.9 °C 30.00in /  1015.8hPa South 9.0mph /  14.5km/h 14.0mph /  22.5km/h 65% 0.00in /  0mm
13:24 75.3 °F /  24.1 °C 62.3 °F /  16.8 °C 30.00in /  1015.8hPa SW 8.0mph /  12.9km/h 11.0mph /  17.7km/h 64% 0.00in /  0mm
13:29 75.7 °F /  24.3 °C 64.4 °F /  18 °C 30.00in /  1015.8hPa SW 4.0mph /  6.4km/h 11.0mph /  17.7km/h 68% 0.00in /  0mm
13:34 75.8 °F /  24.3 °C 63.2 °F /  17.3 °C 29.99in /  1015.5hPa WSW 4.0mph /  6.4km/h 12.0mph /  19.3km/h 65% 0.00in /  0mm
13:39 76.3 °F /  24.6 °C 63.7 °F /  17.6 °C 29.99in /  1015.5hPa SSW 6.0mph /  9.7km/h 12.0mph /  19.3km/h 65% 0.00in /  0mm
13:44 76.2 °F /  24.6 °C 63.1 °F /  17.3 °C 29.99in /  1015.5hPa SSE 9.0mph /  14.5km/h 13.0mph /  20.9km/h 64% 0.00in /  0mm
13:49 76.3 °F /  24.6 °C 63.2 °F /  17.3 °C 29.99in /  1015.5hPa South 5.0mph /  8km/h 11.0mph /  17.7km/h 64% 0.00in /  0mm
13:54 76.4 °F /  24.7 °C 63.3 °F /  17.4 °C 29.99in /  1015.5hPa SE 5.0mph /  8km/h 11.0mph /  17.7km/h 64% 0.00in /  0mm
13:59 76.7 °F /  24.8 °C 62.7 °F /  17.1 °C 29.98in /  1015.1hPa SSW 9.0mph /  14.5km/h 12.0mph /  19.3km/h 62% 0.00in /  0mm
14:04 76.7 °F /  24.8 °C 61.3 °F /  16.3 °C 29.98in /  1015.1hPa SW 5.0mph /  8km/h 13.0mph /  20.9km/h 59% 0.00in /  0mm
14:06 76.9 °F /  24.9 °C 62.0 °F /  16.7 °C 29.98in /  1015.1hPa WSW 11.0mph /  17.7km/h 11.0mph /  17.7km/h 60% 0.00in /  0mm
14:11 77.1 °F /  25.1 °C 61.7 °F /  16.5 °C 29.98in /  1015.1hPa SSW 7.0mph /  11.3km/h 13.0mph /  20.9km/h 59% 0.00in /  0mm
14:16 77.0 °F /  25 °C 62.5 °F /  16.9 °C 29.98in /  1015.1hPa SSW 5.0mph /  8km/h 11.0mph /  17.7km/h 61% 0.00in /  0mm
14:17 77.1 °F /  25.1 °C 63.1 °F /  17.3 °C 29.98in /  1015.1hPa SSE 8.0mph /  12.9km/h 11.0mph /  17.7km/h 62% 0.00in /  0mm
14:22 77.3 °F /  25.2 °C 60.9 °F /  16.1 °C 29.97in /  1014.8hPa SSW 6.0mph /  9.7km/h 13.0mph /  20.9km/h 57% 0.00in /  0mm
14:23 77.3 °F /  25.2 °C 61.9 °F /  16.6 °C 29.97in /  1014.8hPa South 6.0mph /  9.7km/h 12.0mph /  19.3km/h 59% 0.00in /  0mm
14:28 77.3 °F /  25.2 °C 60.9 °F /  16.1 °C 29.97in /  1014.8hPa SSE 10.0mph /  16.1km/h 14.0mph /  22.5km/h 57% 0.00in /  0mm
14:33 77.4 °F /  25.2 °C 61.5 °F /  16.4 °C 29.97in /  1014.8hPa SSE 7.0mph /  11.3km/h 8.0mph /  12.9km/h 58% 0.00in /  0mm
14:38 77.8 °F /  25.4 °C 60.4 °F /  15.8 °C 29.97in /  1014.8hPa SSE 8.0mph /  12.9km/h 15.0mph /  24.1km/h 55% 0.00in /  0mm
14:39 77.8 °F /  25.4 °C 60.4 °F /  15.8 °C 29.97in /  1014.8hPa South 6.0mph /  9.7km/h 15.0mph /  24.1km/h 55% 0.00in /  0mm
14:44 77.8 °F /  25.4 °C 62.3 °F /  16.8 °C 29.97in /  1014.8hPa SW 7.0mph /  11.3km/h 10.0mph /  16.1km/h 59% 0.00in /  0mm
14:45 77.8 °F /  25.4 °C 62.3 °F /  16.8 °C 29.97in /  1014.8hPa SSW 5.0mph /  8km/h 10.0mph /  16.1km/h 59% 0.00in /  0mm
14:50 78.3 °F /  25.7 °C 62.3 °F /  16.8 °C 29.96in /  1014.4hPa SSW 4.0mph /  6.4km/h 10.0mph /  16.1km/h 58% 0.00in /  0mm
14:55 78.8 °F /  26 °C 60.2 °F /  15.7 °C 29.97in /  1014.8hPa SSW 7.0mph /  11.3km/h 10.0mph /  16.1km/h 53% 0.00in /  0mm
15:00 78.9 °F /  26.1 °C 60.3 °F /  15.7 °C 29.96in /  1014.4hPa South 2.0mph /  3.2km/h 9.0mph /  14.5km/h 53% 0.00in /  0mm
15:05 78.7 °F /  25.9 °C 59.6 °F /  15.3 °C 29.96in /  1014.4hPa SSW 6.0mph /  9.7km/h 15.0mph /  24.1km/h 52% 0.00in /  0mm
15:10 78.9 °F /  26.1 °C 61.9 °F /  16.6 °C 29.96in /  1014.4hPa SSW 9.0mph /  14.5km/h 9.0mph /  14.5km/h 56% 0.00in /  0mm
15:16 79.2 °F /  26.2 °C 61.7 °F /  16.5 °C 29.96in /  1014.4hPa SSW 12.0mph /  19.3km/h 12.0mph /  19.3km/h 55% 0.00in /  0mm
15:21 79.0 °F /  26.1 °C 60.4 °F /  15.8 °C 29.95in /  1014.1hPa SW 7.0mph /  11.3km/h 15.0mph /  24.1km/h 53% 0.00in /  0mm
15:22 79.0 °F /  26.1 °C 60.4 °F /  15.8 °C 29.95in /  1014.1hPa WSW 12.0mph /  19.3km/h 14.0mph /  22.5km/h 53% 0.00in /  0mm
15:27 79.2 °F /  26.2 °C 60.1 °F /  15.6 °C 29.95in /  1014.1hPa SSE 7.0mph /  11.3km/h 9.0mph /  14.5km/h 52% 0.00in /  0mm
15:32 79.4 °F /  26.3 °C 60.3 °F /  15.7 °C 29.95in /  1014.1hPa SE 8.0mph /  12.9km/h 12.0mph /  19.3km/h 52% 0.00in /  0mm
15:34 79.4 °F /  26.3 °C 62.3 °F /  16.8 °C 29.95in /  1014.1hPa SW 4.0mph /  6.4km/h 12.0mph /  19.3km/h 56% 0.00in /  0mm
15:39 79.6 °F /  26.4 °C 60.4 °F /  15.8 °C 29.95in /  1014.1hPa SW 7.0mph /  11.3km/h 12.0mph /  19.3km/h 52% 0.00in /  0mm
15:42 79.6 °F /  26.4 °C 59.9 °F /  15.5 °C 29.95in /  1014.1hPa SW 8.0mph /  12.9km/h 14.0mph /  22.5km/h 51% 0.00in /  0mm
15:47 79.8 °F /  26.6 °C 61.2 °F /  16.2 °C 29.94in /  1013.8hPa SSW 9.0mph /  14.5km/h 12.0mph /  19.3km/h 53% 0.00in /  0mm
15:52 80.2 °F /  26.8 °C 62.6 °F /  17 °C 29.94in /  1013.8hPa SSW 6.0mph /  9.7km/h 10.0mph /  16.1km/h 55% 0.00in /  0mm
15:53 80.2 °F /  26.8 °C 59.9 °F /  15.5 °C 29.95in /  1014.1hPa SW 12.0mph /  19.3km/h 12.0mph /  19.3km/h 50% 0.00in /  0mm
15:58 80.1 °F /  26.7 °C 60.4 °F /  15.8 °C 29.94in /  1013.8hPa SSW 9.0mph /  14.5km/h 11.0mph /  17.7km/h 51% 0.00in /  0mm
16:03 80.3 °F /  26.8 °C 61.6 °F /  16.4 °C 29.94in /  1013.8hPa South 5.0mph /  8km/h 13.0mph /  20.9km/h 53% 0.00in /  0mm
16:05 80.3 °F /  26.8 °C 61.6 °F /  16.4 °C 29.94in /  1013.8hPa SE 5.0mph /  8km/h 13.0mph /  20.9km/h 53% 0.00in /  0mm
16:10 80.5 °F /  26.9 °C 62.3 °F /  16.8 °C 29.94in /  1013.8hPa SW 12.0mph /  19.3km/h 12.0mph /  19.3km/h 54% 0.00in /  0mm
16:15 80.2 °F /  26.8 °C 59.3 °F /  15.2 °C 29.94in /  1013.8hPa SSE 5.0mph /  8km/h 12.0mph /  19.3km/h 49% 0.00in /  0mm
16:20 80.5 °F /  26.9 °C 61.8 °F /  16.6 °C 29.94in /  1013.8hPa South 8.0mph /  12.9km/h 13.0mph /  20.9km/h 53% 0.00in /  0mm
16:26 80.6 °F /  27 °C 60.3 °F /  15.7 °C 29.93in /  1013.4hPa SW 12.0mph /  19.3km/h 13.0mph /  20.9km/h 50% 0.00in /  0mm
16:31 80.8 °F /  27.1 °C 59.9 °F /  15.5 °C 29.93in /  1013.4hPa SSE 11.0mph /  17.7km/h 14.0mph /  22.5km/h 49% 0.00in /  0mm
16:36 80.7 °F /  27.1 °C 59.2 °F /  15.1 °C 29.93in /  1013.4hPa SSE 10.0mph /  16.1km/h 14.0mph /  22.5km/h 48% 0.00in /  0mm
16:41 80.7 °F /  27.1 °C 59.2 °F /  15.1 °C 29.93in /  1013.4hPa SSW 7.0mph /  11.3km/h 15.0mph /  24.1km/h 48% 0.00in /  0mm
16:46 81.0 °F /  27.2 °C 60.6 °F /  15.9 °C 29.92in /  1013.1hPa SW 11.0mph /  17.7km/h 11.0mph /  17.7km/h 50% 0.00in /  0mm
16:47 81.0 °F /  27.2 °C 60.6 °F /  15.9 °C 29.92in /  1013.1hPa SSW 9.0mph /  14.5km/h 11.0mph /  17.7km/h 50% 0.00in /  0mm
16:52 81.1 °F /  27.3 °C 60.2 °F /  15.7 °C 29.92in /  1013.1hPa SSW 4.0mph /  6.4km/h 8.0mph /  12.9km/h 49% 0.00in /  0mm
16:57 81.2 °F /  27.3 °C 59.7 °F /  15.4 °C 29.93in /  1013.4hPa SSW 9.0mph /  14.5km/h 13.0mph /  20.9km/h 48% 0.00in /  0mm
17:02 81.2 °F /  27.3 °C 59.7 °F /  15.4 °C 29.93in /  1013.4hPa SE 7.0mph /  11.3km/h 10.0mph /  16.1km/h 48% 0.00in /  0mm
17:07 81.4 °F /  27.4 °C 60.4 °F /  15.8 °C 29.93in /  1013.4hPa SW 4.0mph /  6.4km/h 12.0mph /  19.3km/h 49% 0.00in /  0mm
17:12 81.3 °F /  27.4 °C 58.6 °F /  14.8 °C 29.93in /  1013.4hPa SW 9.0mph /  14.5km/h 13.0mph /  20.9km/h 46% 0.00in /  0mm
17:17 81.5 °F /  27.5 °C 59.3 °F /  15.2 °C 29.93in /  1013.4hPa SE 9.0mph /  14.5km/h 9.0mph /  14.5km/h 47% 0.00in /  0mm
17:22 81.5 °F /  27.5 °C 58.8 °F /  14.9 °C 29.93in /  1013.4hPa South 4.0mph /  6.4km/h 12.0mph /  19.3km/h 46% 0.00in /  0mm
17:27 81.4 °F /  27.4 °C 59.8 °F /  15.4 °C 29.93in /  1013.4hPa SSE 5.0mph /  8km/h 12.0mph /  19.3km/h 48% 0.00in /  0mm
17:32 81.6 °F /  27.6 °C 59.4 °F /  15.2 °C 29.92in /  1013.1hPa SSW 6.0mph /  9.7km/h 14.0mph /  22.5km/h 47% 0.00in /  0mm
17:33 81.6 °F /  27.6 °C 59.4 °F /  15.2 °C 29.92in /  1013.1hPa SW 6.0mph /  9.7km/h 14.0mph /  22.5km/h 47% 0.00in /  0mm
17:38 81.6 °F /  27.6 °C 60.0 °F /  15.6 °C 29.92in /  1013.1hPa SE 6.0mph /  9.7km/h 13.0mph /  20.9km/h 48% 0.00in /  0mm
17:43 81.4 °F /  27.4 °C 60.4 °F /  15.8 °C 29.93in /  1013.4hPa SW 4.0mph /  6.4km/h 11.0mph /  17.7km/h 49% 0.00in /  0mm
17:48 81.5 °F /  27.5 °C 59.3 °F /  15.2 °C 29.93in /  1013.4hPa SSE 7.0mph /  11.3km/h 11.0mph /  17.7km/h 47% 0.00in /  0mm
17:53 81.4 °F /  27.4 °C 59.8 °F /  15.4 °C 29.93in /  1013.4hPa SSW 6.0mph /  9.7km/h 10.0mph /  16.1km/h 48% 0.00in /  0mm
17:58 81.5 °F /  27.5 °C 61.1 °F /  16.2 °C 29.92in /  1013.1hPa SE 7.0mph /  11.3km/h 10.0mph /  16.1km/h 50% 0.00in /  0mm
18:03 81.4 °F /  27.4 °C 59.8 °F /  15.4 °C 29.92in /  1013.1hPa SSW 5.0mph /  8km/h 12.0mph /  19.3km/h 48% 0.00in /  0mm
18:09 81.5 °F /  27.5 °C 60.5 °F /  15.8 °C 29.93in /  1013.4hPa SSW 4.0mph /  6.4km/h 8.0mph /  12.9km/h 49% 0.00in /  0mm
18:14 81.4 °F /  27.4 °C 60.4 °F /  15.8 °C 29.93in /  1013.4hPa SW 11.0mph /  17.7km/h 11.0mph /  17.7km/h 49% 0.00in /  0mm
18:19 81.5 °F /  27.5 °C 60.5 °F /  15.8 °C 29.92in /  1013.1hPa South 4.0mph /  6.4km/h 8.0mph /  12.9km/h 49% 0.00in /  0mm
18:24 81.5 °F /  27.5 °C 61.1 °F /  16.2 °C 29.92in /  1013.1hPa SSW 5.0mph /  8km/h 10.0mph /  16.1km/h 50% 0.00in /  0mm
18:25 81.5 °F /  27.5 °C 61.1 °F /  16.2 °C 29.92in /  1013.1hPa SW 4.0mph /  6.4km/h 10.0mph /  16.1km/h 50% 0.00in /  0mm
18:30 81.4 °F /  27.4 °C 59.8 °F /  15.4 °C 29.93in /  1013.4hPa SW 7.0mph /  11.3km/h 12.0mph /  19.3km/h 48% 0.00in /  0mm
18:35 81.2 °F /  27.3 °C 59.7 °F /  15.4 °C 29.93in /  1013.4hPa SE 7.0mph /  11.3km/h 11.0mph /  17.7km/h 48% 0.00in /  0mm
18:40 80.9 °F /  27.2 °C 59.4 °F /  15.2 °C 29.93in /  1013.4hPa SW 8.0mph /  12.9km/h 12.0mph /  19.3km/h 48% 0.00in /  0mm
18:41 80.9 °F /  27.2 °C 59.4 °F /  15.2 °C 29.93in /  1013.4hPa SSW 7.0mph /  11.3km/h 12.0mph /  19.3km/h 48% 0.00in /  0mm
18:46 80.9 °F /  27.2 °C 59.4 °F /  15.2 °C 29.93in /  1013.4hPa SSE 10.0mph /  16.1km/h 14.0mph /  22.5km/h 48% 0.00in /  0mm
18:51 80.7 °F /  27.1 °C 59.8 °F /  15.4 °C 29.93in /  1013.4hPa South 8.0mph /  12.9km/h 11.0mph /  17.7km/h 49% 0.00in /  0mm
18:56 80.6 °F /  27 °C 59.7 °F /  15.4 °C 29.92in /  1013.1hPa SSE 3.0mph /  4.8km/h 15.0mph /  24.1km/h 49% 0.00in /  0mm
19:01 80.4 °F /  26.9 °C 60.6 °F /  15.9 °C 29.93in /  1013.4hPa SSE 13.0mph /  20.9km/h 13.0mph /  20.9km/h 51% 0.00in /  0mm
19:06 80.3 °F /  26.8 °C 60.0 °F /  15.6 °C 29.93in /  1013.4hPa South 8.0mph /  12.9km/h 9.0mph /  14.5km/h 50% 0.00in /  0mm
19:11 80.2 °F /  26.8 °C 61.5 °F /  16.4 °C 29.92in /  1013.1hPa SSW 5.0mph /  8km/h 7.0mph /  11.3km/h 53% 0.00in /  0mm
19:16 80.0 °F /  26.7 °C 60.8 °F /  16 °C 29.93in /  1013.4hPa SSW 5.0mph /  8km/h 7.0mph /  11.3km/h 52% 0.00in /  0mm
19:21 79.7 °F /  26.5 °C 61.1 °F /  16.2 °C 29.92in /  1013.1hPa SW 6.0mph /  9.7km/h 11.0mph /  17.7km/h 53% 0.00in /  0mm
19:26 79.6 °F /  26.4 °C 61.5 °F /  16.4 °C 29.92in /  1013.1hPa South 2.0mph /  3.2km/h 7.0mph /  11.3km/h 54% 0.00in /  0mm
19:28 79.6 °F /  26.4 °C 61.5 °F /  16.4 °C 29.92in /  1013.1hPa SSW 8.0mph /  12.9km/h 9.0mph /  14.5km/h 54% 0.00in /  0mm
19:33 79.4 °F /  26.3 °C 60.8 °F /  16 °C 29.92in /  1013.1hPa SW 9.0mph /  14.5km/h 9.0mph /  14.5km/h 53% 0.00in /  0mm
19:34 79.4 °F /  26.3 °C 60.8 °F /  16 °C 29.92in /  1013.1hPa SSW 6.0mph /  9.7km/h 9.0mph /  14.5km/h 53% 0.00in /  0mm
19:39 79.1 °F /  26.2 °C 60.5 °F /  15.8 °C 29.92in /  1013.1hPa SSE 4.0mph /  6.4km/h 9.0mph /  14.5km/h 53% 0.00in /  0mm
19:44 79.0 °F /  26.1 °C 61.0 °F /  16.1 °C 29.92in /  1013.1hPa SSW 5.0mph /  8km/h 6.0mph /  9.7km/h 54% 0.00in /  0mm
19:45 78.9 °F /  26.1 °C 60.9 °F /  16.1 °C 29.92in /  1013.1hPa SW 6.0mph /  9.7km/h 6.0mph /  9.7km/h 54% 0.00in /  0mm
19:50 78.7 °F /  25.9 °C 61.2 °F /  16.2 °C 29.92in /  1013.1hPa SSW 3.0mph /  4.8km/h 6.0mph /  9.7km/h 55% 0.00in /  0mm
19:55 78.5 °F /  25.8 °C 61.0 °F /  16.1 °C 29.92in /  1013.1hPa South 5.0mph /  8km/h 5.0mph /  8km/h 55% 0.00in /  0mm
20:00 78.1 °F /  25.6 °C 61.1 °F /  16.2 °C 29.92in /  1013.1hPa SSE 3.0mph /  4.8km/h 7.0mph /  11.3km/h 56% 0.00in /  0mm
20:05 77.7 °F /  25.4 °C 60.8 °F /  16 °C 29.92in /  1013.1hPa South 6.0mph /  9.7km/h 11.0mph /  17.7km/h 56% 0.00in /  0mm
20:10 77.3 °F /  25.2 °C 60.9 °F /  16.1 °C 29.92in /  1013.1hPa South 3.0mph /  4.8km/h 5.0mph /  8km/h 57% 0.00in /  0mm
20:11 77.2 °F /  25.1 °C 60.8 °F /  16 °C 29.92in /  1013.1hPa South 3.0mph /  4.8km/h 5.0mph /  8km/h 57% 0.00in /  0mm
20:16 76.8 °F /  24.9 °C 60.9 °F /  16.1 °C 29.92in /  1013.1hPa SSE 3.0mph /  4.8km/h 6.0mph /  9.7km/h 58% 0.00in /  0mm
20:21 76.2 °F /  24.6 °C 61.3 °F /  16.3 °C 29.92in /  1013.1hPa SSW 4.0mph /  6.4km/h 8.0mph /  12.9km/h 60% 0.00in /  0mm
20:26 75.7 °F /  24.3 °C 61.8 °F /  16.6 °C 29.92in /  1013.1hPa South 4.0mph /  6.4km/h 7.0mph /  11.3km/h 62% 0.00in /  0mm
20:32 75.1 °F /  23.9 °C 61.7 °F /  16.5 °C 29.92in /  1013.1hPa South 2.0mph /  3.2km/h 7.0mph /  11.3km/h 63% 0.00in /  0mm
20:37 74.7 °F /  23.7 °C 61.7 °F /  16.5 °C 29.93in /  1013.4hPa SSW 3.0mph /  4.8km/h 5.0mph /  8km/h 64% 0.00in /  0mm
20:39 74.5 °F /  23.6 °C 61.5 °F /  16.4 °C 29.93in /  1013.4hPa SSW 2.0mph /  3.2km/h 5.0mph /  8km/h 64% 0.00in /  0mm
20:44 74.2 °F /  23.4 °C 61.7 °F /  16.5 °C 29.93in /  1013.4hPa SSE 4.0mph /  6.4km/h 6.0mph /  9.7km/h 65% 0.00in /  0mm
20:45 74.2 °F /  23.4 °C 61.7 °F /  16.5 °C 29.93in /  1013.4hPa SE 2.0mph /  3.2km/h 6.0mph /  9.7km/h 65% 0.00in /  0mm
20:50 73.7 °F /  23.2 °C 61.7 °F /  16.5 °C 29.93in /  1013.4hPa SSE 4.0mph /  6.4km/h 4.0mph /  6.4km/h 66% 0.00in /  0mm
20:55 73.2 °F /  22.9 °C 61.6 °F /  16.4 °C 29.93in /  1013.4hPa SSW 2.0mph /  3.2km/h 3.0mph /  4.8km/h 67% 0.00in /  0mm
21:00 72.9 °F /  22.7 °C 61.3 °F /  16.3 °C 29.93in /  1013.4hPa SSW 3.0mph /  4.8km/h 4.0mph /  6.4km/h 67% 0.00in /  0mm
21:05 72.6 °F /  22.6 °C 61.4 °F /  16.3 °C 29.94in /  1013.8hPa SSE 1.0mph /  1.6km/h 3.0mph /  4.8km/h 68% 0.00in /  0mm
21:10 72.5 °F /  22.5 °C 61.3 °F /  16.3 °C 29.94in /  1013.8hPa SSE 4.0mph /  6.4km/h 4.0mph /  6.4km/h 68% 0.00in /  0mm
21:15 72.3 °F /  22.4 °C 61.6 °F /  16.4 °C 29.94in /  1013.8hPa SSE 4.0mph /  6.4km/h 5.0mph /  8km/h 69% 0.00in /  0mm
21:21 72.0 °F /  22.2 °C 61.3 °F /  16.3 °C 29.95in /  1014.1hPa South 2.0mph /  3.2km/h 5.0mph /  8km/h 69% 0.00in /  0mm
21:26 71.8 °F /  22.1 °C 61.5 °F /  16.4 °C 29.95in /  1014.1hPa SE 4.0mph /  6.4km/h 4.0mph /  6.4km/h 70% 0.00in /  0mm
21:31 71.6 °F /  22 °C 61.3 °F /  16.3 °C 29.95in /  1014.1hPa SSW 1.0mph /  1.6km/h 3.0mph /  4.8km/h 70% 0.00in /  0mm
21:32 71.6 °F /  22 °C 61.3 °F /  16.3 °C 29.95in /  1014.1hPa SE 1.0mph /  1.6km/h 3.0mph /  4.8km/h 70% 0.00in /  0mm
21:37 71.2 °F /  21.8 °C 61.3 °F /  16.3 °C 29.95in /  1014.1hPa SSE 1.0mph /  1.6km/h 2.0mph /  3.2km/h 71% 0.00in /  0mm
21:42 70.7 °F /  21.5 °C 61.2 °F /  16.2 °C 29.96in /  1014.4hPa SSE 1.0mph /  1.6km/h 2.0mph /  3.2km/h 72% 0.00in /  0mm
21:47 70.3 °F /  21.3 °C 61.2 °F /  16.2 °C 29.96in /  1014.4hPa SSE 1.0mph /  1.6km/h 1.0mph /  1.6km/h 73% 0.00in /  0mm
21:52 70.1 °F /  21.2 °C 61.0 °F /  16.1 °C 29.96in /  1014.4hPa Calm   2.0mph /  3.2km/h 73% 0.00in /  0mm
21:53 70.1 °F /  21.2 °C 61.4 °F /  16.3 °C 29.96in /  1014.4hPa Calm   2.0mph /  3.2km/h 74% 0.00in /  0mm
21:58 69.8 °F /  21 °C 61.2 °F /  16.2 °C 29.97in /  1014.8hPa Calm     74% 0.00in /  0mm
22:03 69.4 °F /  20.8 °C 61.1 °F /  16.2 °C 29.97in /  1014.8hPa Calm     75% 0.00in /  0mm
22:08 69.2 °F /  20.7 °C 61.0 °F /  16.1 °C 29.97in /  1014.8hPa Calm     75% 0.00in /  0mm
22:13 68.9 °F /  20.5 °C 61.0 °F /  16.1 °C 29.97in /  1014.8hPa Calm     76% 0.00in /  0mm
22:18 68.7 °F /  20.4 °C 60.8 °F /  16 °C 29.98in /  1015.1hPa Calm   1.0mph /  1.6km/h 76% 0.00in /  0mm
22:23 68.7 °F /  20.4 °C 61.2 °F /  16.2 °C 29.98in /  1015.1hPa SE 1.0mph /  1.6km/h 1.0mph /  1.6km/h 77% 0.00in /  0mm
22:24 68.7 °F /  20.4 °C 61.2 °F /  16.2 °C 29.98in /  1015.1hPa SE 1.0mph /  1.6km/h 1.0mph /  1.6km/h 77% 0.00in /  0mm
22:29 68.5 °F /  20.3 °C 61.0 °F /  16.1 °C 29.98in /  1015.1hPa SE 1.0mph /  1.6km/h 1.0mph /  1.6km/h 77% 0.00in /  0mm
22:34 68.4 °F /  20.2 °C 60.9 °F /  16.1 °C 29.99in /  1015.5hPa Calm   1.0mph /  1.6km/h 77% 0.00in /  0mm
22:36 68.3 °F /  20.2 °C 61.2 °F /  16.2 °C 29.99in /  1015.5hPa Calm     78% 0.00in /  0mm
22:41 68.3 °F /  20.2 °C 61.2 °F /  16.2 °C 29.99in /  1015.5hPa Calm     78% 0.00in /  0mm
22:46 68.3 °F /  20.2 °C 61.2 °F /  16.2 °C 30.00in /  1015.8hPa Calm     78% 0.00in /  0mm
22:47 68.3 °F /  20.2 °C 61.2 °F /  16.2 °C 30.00in /  1015.8hPa Calm     78% 0.00in /  0mm
22:52 68.1 °F /  20.1 °C 61.0 °F /  16.1 °C 30.00in /  1015.8hPa Calm     78% 0.00in /  0mm
22:57 67.9 °F /  19.9 °C 61.2 °F /  16.2 °C 30.00in /  1015.8hPa Calm   1.0mph /  1.6km/h 79% 0.00in /  0mm
23:02 67.7 °F /  19.8 °C 61.3 °F /  16.3 °C 30.00in /  1015.8hPa East 1.0mph /  1.6km/h 1.0mph /  1.6km/h 80% 0.00in /  0mm
23:07 68.0 °F /  20 °C 61.6 °F /  16.4 °C 30.01in /  1016.1hPa ENE 1.0mph /  1.6km/h 2.0mph /  3.2km/h 80% 0.00in /  0mm
23:12 67.9 °F /  19.9 °C 61.5 °F /  16.4 °C 30.01in /  1016.1hPa ENE 1.0mph /  1.6km/h 1.0mph /  1.6km/h 80% 0.00in /  0mm
23:17 67.8 °F /  19.9 °C 61.4 °F /  16.3 °C 30.01in /  1016.1hPa ENE 1.0mph /  1.6km/h 1.0mph /  1.6km/h 80% 0.00in /  0mm
23:22 67.5 °F /  19.7 °C 61.1 °F /  16.2 °C 30.01in /  1016.1hPa Calm     80% 0.00in /  0mm
23:27 67.2 °F /  19.6 °C 60.8 °F /  16 °C 30.01in /  1016.1hPa Calm     80% 0.00in /  0mm
23:33 66.7 °F /  19.3 °C 60.3 °F /  15.7 °C 30.01in /  1016.1hPa Calm     80% 0.00in /  0mm
23:34 66.5 °F /  19.2 °C 60.5 °F /  15.8 °C 30.01in /  1016.1hPa Calm     81% 0.00in /  0mm
23:39 66.0 °F /  18.9 °C 60.7 °F /  15.9 °C 30.02in /  1016.5hPa Calm     83% 0.00in /  0mm
23:41 65.8 °F /  18.8 °C 60.5 °F /  15.8 °C 30.02in /  1016.5hPa Calm     83% 0.00in /  0mm
23:46 65.7 °F /  18.7 °C 60.7 °F /  15.9 °C 30.02in /  1016.5hPa Calm     84% 0.00in /  0mm
23:51 65.7 °F /  18.7 °C 60.7 °F /  15.9 °C 30.02in /  1016.5hPa Calm     84% 0.00in /  0mm
23:52 65.8 °F /  18.8 °C 60.8 °F /  16 °C 30.02in /  1016.5hPa ENE 1.0mph /  1.6km/h 1.0mph /  1.6km/h 84% 0.00in /  0mm
23:57 66.2 °F /  19 °C 61.2 °F /  16.2 °C 30.02in /  1016.5hPa Calm   1.0mph /  1.6km/h 84% 0.00in /  0mm
Compliments of Weather Underground